Agua Dulce, CA

12:31 AM PST on December 15, 2019 (GMT -0800)
Agua Dulce Airport | | Change Station
Active Advisory: Winter Weather Advisory

Elev 2600 ft 34.50 °N, 118.32 °W | Updated 4 seconds ago

Clear
Clear
44.9 °F
Feels Like 45 °F
N
1.5
Wind Variable Wind from WSW
Gusts 6.0 mph

Today
High -- | Low -- °F
--% Chance of Precip.
Yesterday
High -- | Low -- °F
Precip. -- in
Pressure 29.95 in
Visibility 10.0 miles
Clouds Clear
Windchill 45 °F
Dew Point 32 °F
Humidity 62%
Rainfall 0.00 in
Snow Depth Not available.
6:52 AM 4:44 PM
Waning Gibbous, 89% visible
METAR KWJF 150756Z AUTO 27014KT 10SM CLR 07/02 A2994 RMK AO2 SLP140 T00670017 401610067
Pressure 29.95 in
Visibility 10.0 miles
Clouds Clear
Windchill 45 °F
Dew Point 32 °F
Humidity 62%
Rainfall 0.00 in
Snow Depth Not available.
6:52 AM 4:44 PM
Waning Gibbous, 89% visible
METAR KWJF 150756Z AUTO 27014KT 10SM CLR 07/02 A2994 RMK AO2 SLP140 T00670017 401610067

Get Your Daily Forecast Email!

Thanks for signing up!

Be on the lookout for a verification email in your inbox.

You'll start receiving severe weather alerts in your inbox..

×

10-Day Weather Forecast

Almanac

Astronomy

Dec. 15, 2019 Rise Set
Actual Time
Civil Twilight
Nautical Twilight
Astronomical Twilight
Moon
Length of Visible Light
Length of Day
Tomorrow will be .
, % of the Moon is Illuminated

Today's Extremes

State Highs State Lows

Community

WunderPhotos

Category 6

Welcome to Category 6. This is the collective home for Weather Underground's featured writeups by Dr. Jeff Masters (right), Bob Henson (left), Chris Burt, and other regular contributors.

Nearby

Air Quality

  Air Quality AQ Index Pollutant
Not available.

Snow Depth

Station Depth Elevation

Earthquake Activity

City Distance Mag. Time & Date
Minimum magnitude displayed is 2.5.

Coastal Water Temperatures

Place Temperature

Stations

Nearby Weather Stations

Station Location Temp. Windchill Dew Point Humidity Wind Precip. Elev Updated Type
                   

Watches & Warnings

Winter Weather Advisory
Issued: 9:55 PM PST Dec. 14, 2019 – National Weather Service

... Winter Weather Advisory remains in effect until noon PST
Sunday...

* what... snow showers expected with snow levels lowering to 3500
to 4000 feet overnight. Total snow accumulation of one to two
inches. Winds gusting as high as 50 mph.

* Where... Ventura County mountains and Los Angeles County
mountains excluding the Santa Monica range.

* When... until noon PST Sunday.

* Additional details... plan on slippery Road conditions and
reduced visibility at times. Roadways affected include
Interstate 5 at and just below the Grapevine and on Lockwood
Valley Road in Ventura County. Gusty winds could bring down
tree branches.

Precautionary/preparedness actions...

Slow down and use caution while traveling.

The latest Road conditions from caltrans are available by calling
1 800 4 2 7 7 6 2 3.